sensor_id;sensor_type;location;lat;lon;timestamp;temperature;humidity
28244;DHT22;15510;52.512;13.300;2024-01-30T00:00:43;5.50;99.90
28244;DHT22;15510;52.512;13.300;2024-01-30T00:03:38;5.50;99.90
28244;DHT22;15510;52.512;13.300;2024-01-30T00:12:31;5.30;99.90
28244;DHT22;15510;52.512;13.300;2024-01-30T00:15:10;5.20;99.90
28244;DHT22;15510;52.512;13.300;2024-01-30T00:18:20;5.20;99.90
28244;DHT22;15510;52.512;13.300;2024-01-30T00:21:06;5.10;99.90
28244;DHT22;15510;52.512;13.300;2024-01-30T00:23:35;5.10;99.90
28244;DHT22;15510;52.512;13.300;2024-01-30T00:26:07;5.10;99.90
28244;DHT22;15510;52.512;13.300;2024-01-30T00:31:59;5.10;99.90
28244;DHT22;15510;52.512;13.300;2024-01-30T00:34:31;5.10;99.90
28244;DHT22;15510;52.512;13.300;2024-01-30T00:36:58;5.00;99.90
28244;DHT22;15510;52.512;13.300;2024-01-30T00:39:26;5.10;99.90
28244;DHT22;15510;52.512;13.300;2024-01-30T00:41:52;5.20;99.90
28244;DHT22;15510;52.512;13.300;2024-01-30T00:44:18;5.20;99.90
28244;DHT22;15510;52.512;13.300;2024-01-30T00:47:05;5.20;99.90
28244;DHT22;15510;52.512;13.300;2024-01-30T00:49:34;5.30;99.90
28244;DHT22;15510;52.512;13.300;2024-01-30T00:52:00;5.40;99.90
28244;DHT22;15510;52.512;13.300;2024-01-30T00:54:26;5.40;99.90
28244;DHT22;15510;52.512;13.300;2024-01-30T00:57:11;5.40;99.90
28244;DHT22;15510;52.512;13.300;2024-01-30T00:59:42;5.40;99.90
28244;DHT22;15510;52.512;13.300;2024-01-30T01:02:08;5.30;99.90
28244;DHT22;15510;52.512;13.300;2024-01-30T01:04:44;5.30;99.90
28244;DHT22;15510;52.512;13.300;2024-01-30T01:07:16;5.30;99.90
28244;DHT22;15510;52.512;13.300;2024-01-30T01:09:42;5.30;99.90
28244;DHT22;15510;52.512;13.300;2024-01-30T01:12:07;5.20;99.90
28244;DHT22;15510;52.512;13.300;2024-01-30T01:14:33;5.30;99.90
28244;DHT22;15510;52.512;13.300;2024-01-30T01:16:59;5.30;99.90
28244;DHT22;15510;52.512;13.300;2024-01-30T01:19:25;5.40;99.90
28244;DHT22;15510;52.512;13.300;2024-01-30T01:21:50;5.40;99.90
28244;DHT22;15510;52.512;13.300;2024-01-30T01:24:16;5.40;99.90
28244;DHT22;15510;52.512;13.300;2024-01-30T01:26:42;5.30;99.90
28244;DHT22;15510;52.512;13.300;2024-01-30T01:29:08;5.20;99.90
28244;DHT22;15510;52.512;13.300;2024-01-30T01:31:37;5.20;99.90
28244;DHT22;15510;52.512;13.300;2024-01-30T01:34:12;5.20;99.90
28244;DHT22;15510;52.512;13.300;2024-01-30T01:36:39;5.10;99.90
28244;DHT22;15510;52.512;13.300;2024-01-30T01:39:05;5.10;99.90
28244;DHT22;15510;52.512;13.300;2024-01-30T01:41:33;5.10;99.90
28244;DHT22;15510;52.512;13.300;2024-01-30T01:44:02;5.10;99.90
28244;DHT22;15510;52.512;13.300;2024-01-30T01:46:30;5.20;99.90
28244;DHT22;15510;52.512;13.300;2024-01-30T01:49:06;5.20;99.90
28244;DHT22;15510;52.512;13.300;2024-01-30T01:51:36;5.10;99.90
28244;DHT22;15510;52.512;13.300;2024-01-30T01:54:09;5.10;99.90
28244;DHT22;15510;52.512;13.300;2024-01-30T01:56:35;5.10;99.90
28244;DHT22;15510;52.512;13.300;2024-01-30T01:59:08;5.10;99.90
28244;DHT22;15510;52.512;13.300;2024-01-30T02:01:40;5.20;99.90
28244;DHT22;15510;52.512;13.300;2024-01-30T02:04:19;5.20;99.90
28244;DHT22;15510;52.512;13.300;2024-01-30T02:06:51;5.30;99.90
28244;DHT22;15510;52.512;13.300;2024-01-30T02:09:32;5.20;99.90
28244;DHT22;15510;52.512;13.300;2024-01-30T02:12:00;5.20;99.90
28244;DHT22;15510;52.512;13.300;2024-01-30T02:14:31;5.20;99.90
28244;DHT22;15510;52.512;13.300;2024-01-30T02:16:59;5.10;99.90
28244;DHT22;15510;52.512;13.300;2024-01-30T02:19:28;5.00;99.90
28244;DHT22;15510;52.512;13.300;2024-01-30T02:21:55;4.90;99.90
28244;DHT22;15510;52.512;13.300;2024-01-30T02:24:44;4.90;99.90
28244;DHT22;15510;52.512;13.300;2024-01-30T02:27:17;4.90;99.90
28244;DHT22;15510;52.512;13.300;2024-01-30T02:29:45;4.80;99.90
28244;DHT22;15510;52.512;13.300;2024-01-30T02:32:12;4.80;99.90
28244;DHT22;15510;52.512;13.300;2024-01-30T02:34:47;4.90;99.90
28244;DHT22;15510;52.512;13.300;2024-01-30T02:37:16;4.80;99.90
28244;DHT22;15510;52.512;13.300;2024-01-30T02:39:45;4.80;99.90
28244;DHT22;15510;52.512;13.300;2024-01-30T02:42:11;4.80;99.90
28244;DHT22;15510;52.512;13.300;2024-01-30T02:44:38;4.70;99.90
28244;DHT22;15510;52.512;13.300;2024-01-30T02:47:04;4.70;99.90
28244;DHT22;15510;52.512;13.300;2024-01-30T02:49:31;4.70;99.90
28244;DHT22;15510;52.512;13.300;2024-01-30T02:51:57;4.70;99.90
28244;DHT22;15510;52.512;13.300;2024-01-30T02:54:25;4.70;99.90
28244;DHT22;15510;52.512;13.300;2024-01-30T02:56:54;4.70;99.90
28244;DHT22;15510;52.512;13.300;2024-01-30T02:59:20;4.60;99.90
28244;DHT22;15510;52.512;13.300;2024-01-30T03:01:49;4.60;99.90
28244;DHT22;15510;52.512;13.300;2024-01-30T03:04:22;4.50;99.90
28244;DHT22;15510;52.512;13.300;2024-01-30T03:06:48;4.50;99.90
28244;DHT22;15510;52.512;13.300;2024-01-30T03:09:17;4.50;99.90
28244;DHT22;15510;52.512;13.300;2024-01-30T03:11:55;4.50;99.90
28244;DHT22;15510;52.512;13.300;2024-01-30T03:14:24;4.60;99.90
28244;DHT22;15510;52.512;13.300;2024-01-30T03:17:00;4.60;99.90
28244;DHT22;15510;52.512;13.300;2024-01-30T03:19:26;4.60;99.90
28244;DHT22;15510;52.512;13.300;2024-01-30T03:22:18;4.60;99.90
28244;DHT22;15510;52.512;13.300;2024-01-30T03:24:48;4.60;99.90
28244;DHT22;15510;52.512;13.300;2024-01-30T03:27:17;4.60;99.90
28244;DHT22;15510;52.512;13.300;2024-01-30T03:29:43;4.60;99.90
28244;DHT22;15510;52.512;13.300;2024-01-30T03:32:12;4.50;99.90
28244;DHT22;15510;52.512;13.300;2024-01-30T03:34:38;4.50;99.90
28244;DHT22;15510;52.512;13.300;2024-01-30T03:37:10;4.40;99.90
28244;DHT22;15510;52.512;13.300;2024-01-30T03:39:36;4.40;99.90
28244;DHT22;15510;52.512;13.300;2024-01-30T03:42:02;4.40;99.90
28244;DHT22;15510;52.512;13.300;2024-01-30T03:44:31;4.40;99.90
28244;DHT22;15510;52.512;13.300;2024-01-30T03:47:12;4.40;99.90
28244;DHT22;15510;52.512;13.300;2024-01-30T03:49:41;4.50;99.90
28244;DHT22;15510;52.512;13.300;2024-01-30T03:52:13;4.50;99.90
28244;DHT22;15510;52.512;13.300;2024-01-30T03:54:41;4.60;99.90
28244;DHT22;15510;52.512;13.300;2024-01-30T03:57:11;4.60;99.90
28244;DHT22;15510;52.512;13.300;2024-01-30T03:59:37;4.60;99.90
28244;DHT22;15510;52.512;13.300;2024-01-30T04:02:03;4.60;99.90
28244;DHT22;15510;52.512;13.300;2024-01-30T04:04:30;4.60;99.90
28244;DHT22;15510;52.512;13.300;2024-01-30T04:07:01;4.60;99.90
28244;DHT22;15510;52.512;13.300;2024-01-30T04:09:30;4.60;99.90
28244;DHT22;15510;52.512;13.300;2024-01-30T04:11:56;4.50;99.90
28244;DHT22;15510;52.512;13.300;2024-01-30T04:14:34;4.50;99.90
28244;DHT22;15510;52.512;13.300;2024-01-30T04:17:04;4.40;99.90
28244;DHT22;15510;52.512;13.300;2024-01-30T04:19:37;4.40;99.90
28244;DHT22;15510;52.512;13.300;2024-01-30T04:22:04;4.50;99.90
28244;DHT22;15510;52.512;13.300;2024-01-30T04:24:39;4.50;99.90
28244;DHT22;15510;52.512;13.300;2024-01-30T04:27:05;4.60;99.90
28244;DHT22;15510;52.512;13.300;2024-01-30T04:29:41;4.70;99.90
28244;DHT22;15510;52.512;13.300;2024-01-30T04:32:10;4.70;99.90
28244;DHT22;15510;52.512;13.300;2024-01-30T04:34:46;4.70;99.90
28244;DHT22;15510;52.512;13.300;2024-01-30T04:37:21;4.70;99.90
28244;DHT22;15510;52.512;13.300;2024-01-30T04:39:47;4.70;99.90
28244;DHT22;15510;52.512;13.300;2024-01-30T04:42:27;4.60;99.90
28244;DHT22;15510;52.512;13.300;2024-01-30T04:44:56;4.60;99.90
28244;DHT22;15510;52.512;13.300;2024-01-30T04:47:27;4.70;99.90
28244;DHT22;15510;52.512;13.300;2024-01-30T04:49:53;4.70;99.90
28244;DHT22;15510;52.512;13.300;2024-01-30T04:52:19;4.70;99.90
28244;DHT22;15510;52.512;13.300;2024-01-30T04:54:45;4.60;99.90
28244;DHT22;15510;52.512;13.300;2024-01-30T04:57:11;4.60;99.90
28244;DHT22;15510;52.512;13.300;2024-01-30T04:59:37;4.70;99.90
28244;DHT22;15510;52.512;13.300;2024-01-30T05:02:04;4.60;99.90
28244;DHT22;15510;52.512;13.300;2024-01-30T05:04:36;4.50;99.90
28244;DHT22;15510;52.512;13.300;2024-01-30T05:07:02;4.40;99.90
28244;DHT22;15510;52.512;13.300;2024-01-30T05:09:28;4.30;99.90
28244;DHT22;15510;52.512;13.300;2024-01-30T05:11:57;4.30;99.90
28244;DHT22;15510;52.512;13.300;2024-01-30T05:14:24;4.20;99.90
28244;DHT22;15510;52.512;13.300;2024-01-30T05:16:53;4.20;99.90
28244;DHT22;15510;52.512;13.300;2024-01-30T05:19:25;4.20;99.90
28244;DHT22;15510;52.512;13.300;2024-01-30T05:21:54;4.20;99.90
28244;DHT22;15510;52.512;13.300;2024-01-30T05:24:28;4.20;99.90
28244;DHT22;15510;52.512;13.300;2024-01-30T05:26:54;4.30;99.90
28244;DHT22;15510;52.512;13.300;2024-01-30T05:29:20;4.30;99.90
28244;DHT22;15510;52.512;13.300;2024-01-30T05:31:49;4.40;99.90
28244;DHT22;15510;52.512;13.300;2024-01-30T05:34:18;4.40;99.90
28244;DHT22;15510;52.512;13.300;2024-01-30T05:36:46;4.40;99.90
28244;DHT22;15510;52.512;13.300;2024-01-30T05:39:18;4.40;99.90
28244;DHT22;15510;52.512;13.300;2024-01-30T05:41:45;4.40;99.90
28244;DHT22;15510;52.512;13.300;2024-01-30T05:44:14;4.40;99.90
28244;DHT22;15510;52.512;13.300;2024-01-30T05:46:50;4.30;99.90
28244;DHT22;15510;52.512;13.300;2024-01-30T05:49:16;4.30;99.90
28244;DHT22;15510;52.512;13.300;2024-01-30T05:51:45;4.20;99.90
28244;DHT22;15510;52.512;13.300;2024-01-30T05:54:14;4.20;99.90
28244;DHT22;15510;52.512;13.300;2024-01-30T05:57:18;4.20;99.90
28244;DHT22;15510;52.512;13.300;2024-01-30T05:59:52;4.20;99.90
28244;DHT22;15510;52.512;13.300;2024-01-30T06:02:45;4.20;99.90
28244;DHT22;15510;52.512;13.300;2024-01-30T06:05:19;4.30;99.90
28244;DHT22;15510;52.512;13.300;2024-01-30T06:07:51;4.40;99.90
28244;DHT22;15510;52.512;13.300;2024-01-30T06:10:20;4.40;99.90
28244;DHT22;15510;52.512;13.300;2024-01-30T06:12:49;4.40;99.90
28244;DHT22;15510;52.512;13.300;2024-01-30T06:15:23;4.40;99.90
28244;DHT22;15510;52.512;13.300;2024-01-30T06:17:53;4.50;99.90
28244;DHT22;15510;52.512;13.300;2024-01-30T06:20:19;4.50;99.90
28244;DHT22;15510;52.512;13.300;2024-01-30T06:22:56;4.50;99.90
28244;DHT22;15510;52.512;13.300;2024-01-30T06:25:24;4.60;99.90
28244;DHT22;15510;52.512;13.300;2024-01-30T06:27:53;4.70;99.90
28244;DHT22;15510;52.512;13.300;2024-01-30T06:30:18;4.70;99.90
28244;DHT22;15510;52.512;13.300;2024-01-30T06:32:45;4.70;99.90
28244;DHT22;15510;52.512;13.300;2024-01-30T06:35:21;4.70;99.90
28244;DHT22;15510;52.512;13.300;2024-01-30T06:37:47;4.60;99.90
28244;DHT22;15510;52.512;13.300;2024-01-30T06:40:13;4.60;99.90
28244;DHT22;15510;52.512;13.300;2024-01-30T06:42:39;4.60;99.90
28244;DHT22;15510;52.512;13.300;2024-01-30T06:45:15;4.70;99.90
28244;DHT22;15510;52.512;13.300;2024-01-30T06:50:19;4.60;99.90
28244;DHT22;15510;52.512;13.300;2024-01-30T06:52:48;4.50;99.90
28244;DHT22;15510;52.512;13.300;2024-01-30T06:55:14;4.40;99.90
28244;DHT22;15510;52.512;13.300;2024-01-30T06:57:40;4.40;99.90
28244;DHT22;15510;52.512;13.300;2024-01-30T07:00:06;4.40;99.90
28244;DHT22;15510;52.512;13.300;2024-01-30T07:02:32;4.40;99.90
28244;DHT22;15510;52.512;13.300;2024-01-30T07:04:58;4.40;99.90
28244;DHT22;15510;52.512;13.300;2024-01-30T07:07:24;4.40;99.90
28244;DHT22;15510;52.512;13.300;2024-01-30T07:09:56;4.50;99.90
28244;DHT22;15510;52.512;13.300;2024-01-30T07:12:23;4.60;99.90
28244;DHT22;15510;52.512;13.300;2024-01-30T07:14:52;4.60;99.90
28244;DHT22;15510;52.512;13.300;2024-01-30T07:17:21;4.70;99.90
28244;DHT22;15510;52.512;13.300;2024-01-30T07:19:50;4.80;99.90
28244;DHT22;15510;52.512;13.300;2024-01-30T07:22:16;4.80;99.90
28244;DHT22;15510;52.512;13.300;2024-01-30T07:24:43;4.80;99.90
28244;DHT22;15510;52.512;13.300;2024-01-30T07:27:14;4.90;99.90
28244;DHT22;15510;52.512;13.300;2024-01-30T07:30:00;5.00;99.90
28244;DHT22;15510;52.512;13.300;2024-01-30T07:32:26;5.00;99.90
28244;DHT22;15510;52.512;13.300;2024-01-30T07:34:52;5.00;99.90
28244;DHT22;15510;52.512;13.300;2024-01-30T07:37:18;5.10;99.90
28244;DHT22;15510;52.512;13.300;2024-01-30T07:39:57;5.10;99.90
28244;DHT22;15510;52.512;13.300;2024-01-30T07:42:25;5.00;99.90
28244;DHT22;15510;52.512;13.300;2024-01-30T07:44:57;5.10;99.90
28244;DHT22;15510;52.512;13.300;2024-01-30T07:47:35;5.10;99.90
28244;DHT22;15510;52.512;13.300;2024-01-30T07:50:01;5.20;99.90
28244;DHT22;15510;52.512;13.300;2024-01-30T07:52:29;5.20;99.90
28244;DHT22;15510;52.512;13.300;2024-01-30T07:54:55;5.20;99.90
28244;DHT22;15510;52.512;13.300;2024-01-30T07:57:21;5.20;99.90
28244;DHT22;15510;52.512;13.300;2024-01-30T07:59:46;5.20;99.90
28244;DHT22;15510;52.512;13.300;2024-01-30T08:02:13;5.30;99.90
28244;DHT22;15510;52.512;13.300;2024-01-30T08:04:38;5.30;99.90
28244;DHT22;15510;52.512;13.300;2024-01-30T08:07:04;5.30;99.90
28244;DHT22;15510;52.512;13.300;2024-01-30T08:09:30;5.30;99.90
28244;DHT22;15510;52.512;13.300;2024-01-30T08:11:56;5.20;99.90
28244;DHT22;15510;52.512;13.300;2024-01-30T08:14:22;5.20;99.90
28244;DHT22;15510;52.512;13.300;2024-01-30T08:16:48;5.20;99.90
28244;DHT22;15510;52.512;13.300;2024-01-30T08:19:15;5.20;99.90
28244;DHT22;15510;52.512;13.300;2024-01-30T08:21:41;5.30;99.90
28244;DHT22;15510;52.512;13.300;2024-01-30T08:24:07;5.30;99.90
28244;DHT22;15510;52.512;13.300;2024-01-30T08:26:33;5.30;99.90
28244;DHT22;15510;52.512;13.300;2024-01-30T08:28:59;5.30;99.90
28244;DHT22;15510;52.512;13.300;2024-01-30T08:31:25;5.30;99.90
28244;DHT22;15510;52.512;13.300;2024-01-30T08:33:50;5.30;99.90
28244;DHT22;15510;52.512;13.300;2024-01-30T08:36:17;5.30;99.90
28244;DHT22;15510;52.512;13.300;2024-01-30T08:38:43;5.40;99.90
28244;DHT22;15510;52.512;13.300;2024-01-30T08:41:08;5.40;99.90
28244;DHT22;15510;52.512;13.300;2024-01-30T08:43:34;5.40;99.90
28244;DHT22;15510;52.512;13.300;2024-01-30T08:46:00;5.40;99.90
28244;DHT22;15510;52.512;13.300;2024-01-30T08:48:26;5.50;99.90
28244;DHT22;15510;52.512;13.300;2024-01-30T08:50:52;5.50;99.90
28244;DHT22;15510;52.512;13.300;2024-01-30T08:53:18;5.60;99.90
28244;DHT22;15510;52.512;13.300;2024-01-30T08:55:44;5.70;99.90
28244;DHT22;15510;52.512;13.300;2024-01-30T08:58:10;5.80;99.90
28244;DHT22;15510;52.512;13.300;2024-01-30T09:00:36;5.90;99.90
28244;DHT22;15510;52.512;13.300;2024-01-30T09:03:03;5.90;99.90
28244;DHT22;15510;52.512;13.300;2024-01-30T09:05:28;6.00;99.90
28244;DHT22;15510;52.512;13.300;2024-01-30T09:07:54;6.00;99.90
28244;DHT22;15510;52.512;13.300;2024-01-30T09:10:20;6.10;99.90
28244;DHT22;15510;52.512;13.300;2024-01-30T09:12:46;6.10;99.90
28244;DHT22;15510;52.512;13.300;2024-01-30T09:15:12;6.20;99.90
28244;DHT22;15510;52.512;13.300;2024-01-30T09:17:38;6.20;99.90
28244;DHT22;15510;52.512;13.300;2024-01-30T09:20:04;6.20;99.90
28244;DHT22;15510;52.512;13.300;2024-01-30T09:22:30;6.30;99.90
28244;DHT22;15510;52.512;13.300;2024-01-30T09:24:57;6.30;99.90
28244;DHT22;15510;52.512;13.300;2024-01-30T09:27:23;6.30;99.90
28244;DHT22;15510;52.512;13.300;2024-01-30T09:29:48;6.30;99.90
28244;DHT22;15510;52.512;13.300;2024-01-30T09:32:14;6.30;99.90
28244;DHT22;15510;52.512;13.300;2024-01-30T09:34:40;6.30;99.90
28244;DHT22;15510;52.512;13.300;2024-01-30T09:37:05;6.30;99.90
28244;DHT22;15510;52.512;13.300;2024-01-30T09:39:31;6.30;99.90
28244;DHT22;15510;52.512;13.300;2024-01-30T09:44:51;6.40;99.90
28244;DHT22;15510;52.512;13.300;2024-01-30T09:47:17;6.50;99.90
28244;DHT22;15510;52.512;13.300;2024-01-30T09:49:43;6.60;99.90
28244;DHT22;15510;52.512;13.300;2024-01-30T09:52:10;6.60;99.90
28244;DHT22;15510;52.512;13.300;2024-01-30T09:54:36;6.60;99.90
28244;DHT22;15510;52.512;13.300;2024-01-30T09:57:04;6.70;99.90
28244;DHT22;15510;52.512;13.300;2024-01-30T09:59:30;6.70;99.90
28244;DHT22;15510;52.512;13.300;2024-01-30T10:01:56;6.80;99.90
28244;DHT22;15510;52.512;13.300;2024-01-30T10:04:22;6.80;99.90
28244;DHT22;15510;52.512;13.300;2024-01-30T10:06:48;6.80;99.90
28244;DHT22;15510;52.512;13.300;2024-01-30T10:09:14;6.80;99.90
28244;DHT22;15510;52.512;13.300;2024-01-30T10:11:39;6.80;99.90
28244;DHT22;15510;52.512;13.300;2024-01-30T10:14:05;6.90;99.90
28244;DHT22;15510;52.512;13.300;2024-01-30T10:16:31;6.90;99.90
28244;DHT22;15510;52.512;13.300;2024-01-30T10:18:56;7.00;99.90
28244;DHT22;15510;52.512;13.300;2024-01-30T10:21:22;7.00;99.90
28244;DHT22;15510;52.512;13.300;2024-01-30T10:23:49;7.00;99.90
28244;DHT22;15510;52.512;13.300;2024-01-30T10:26:16;7.20;99.90
28244;DHT22;15510;52.512;13.300;2024-01-30T10:28:42;7.20;99.90
28244;DHT22;15510;52.512;13.300;2024-01-30T10:31:08;7.20;99.90
28244;DHT22;15510;52.512;13.300;2024-01-30T10:33:34;7.20;99.90
28244;DHT22;15510;52.512;13.300;2024-01-30T10:36:04;7.20;99.90
28244;DHT22;15510;52.512;13.300;2024-01-30T10:38:30;7.20;99.90
28244;DHT22;15510;52.512;13.300;2024-01-30T10:40:57;7.20;99.90
28244;DHT22;15510;52.512;13.300;2024-01-30T10:43:32;7.20;99.90
28244;DHT22;15510;52.512;13.300;2024-01-30T10:46:19;7.20;99.90
28244;DHT22;15510;52.512;13.300;2024-01-30T10:48:58;7.20;99.90
28244;DHT22;15510;52.512;13.300;2024-01-30T10:51:26;7.30;99.90
28244;DHT22;15510;52.512;13.300;2024-01-30T10:53:52;7.30;99.90
28244;DHT22;15510;52.512;13.300;2024-01-30T10:56:22;7.30;99.90
28244;DHT22;15510;52.512;13.300;2024-01-30T10:58:52;7.40;99.90
28244;DHT22;15510;52.512;13.300;2024-01-30T11:01:22;7.50;99.90
28244;DHT22;15510;52.512;13.300;2024-01-30T11:03:52;7.50;99.90
28244;DHT22;15510;52.512;13.300;2024-01-30T11:06:18;7.60;99.90
28244;DHT22;15510;52.512;13.300;2024-01-30T11:08:45;7.60;99.90
28244;DHT22;15510;52.512;13.300;2024-01-30T11:11:11;7.70;99.90
28244;DHT22;15510;52.512;13.300;2024-01-30T11:13:37;7.70;99.90
28244;DHT22;15510;52.512;13.300;2024-01-30T11:16:04;7.80;99.90
28244;DHT22;15510;52.512;13.300;2024-01-30T11:18:31;8.00;99.90
28244;DHT22;15510;52.512;13.300;2024-01-30T11:20:58;8.00;99.90
28244;DHT22;15510;52.512;13.300;2024-01-30T11:23:26;8.10;99.90
28244;DHT22;15510;52.512;13.300;2024-01-30T11:25:53;8.20;99.90
28244;DHT22;15510;52.512;13.300;2024-01-30T11:28:21;8.30;99.90
28244;DHT22;15510;52.512;13.300;2024-01-30T11:30:46;8.30;99.90
28244;DHT22;15510;52.512;13.300;2024-01-30T11:33:14;8.40;99.90
28244;DHT22;15510;52.512;13.300;2024-01-30T11:35:40;8.40;99.90
28244;DHT22;15510;52.512;13.300;2024-01-30T11:38:08;8.50;99.90
28244;DHT22;15510;52.512;13.300;2024-01-30T11:40:35;8.60;99.90
28244;DHT22;15510;52.512;13.300;2024-01-30T11:43:03;8.60;99.90
28244;DHT22;15510;52.512;13.300;2024-01-30T11:45:30;8.60;99.90
28244;DHT22;15510;52.512;13.300;2024-01-30T11:47:57;8.60;99.90
28244;DHT22;15510;52.512;13.300;2024-01-30T11:50:25;8.60;99.90
28244;DHT22;15510;52.512;13.300;2024-01-30T11:52:51;8.70;99.90
28244;DHT22;15510;52.512;13.300;2024-01-30T11:55:17;8.70;99.90
28244;DHT22;15510;52.512;13.300;2024-01-30T11:57:44;8.80;99.90
28244;DHT22;15510;52.512;13.300;2024-01-30T12:00:17;8.80;99.90
28244;DHT22;15510;52.512;13.300;2024-01-30T12:02:51;8.80;99.90
28244;DHT22;15510;52.512;13.300;2024-01-30T12:05:19;8.80;99.90
28244;DHT22;15510;52.512;13.300;2024-01-30T12:07:45;8.80;99.90
28244;DHT22;15510;52.512;13.300;2024-01-30T12:10:13;8.80;99.90
28244;DHT22;15510;52.512;13.300;2024-01-30T12:12:41;8.80;99.90
28244;DHT22;15510;52.512;13.300;2024-01-30T12:15:08;8.90;99.90
28244;DHT22;15510;52.512;13.300;2024-01-30T12:17:34;8.80;99.90
28244;DHT22;15510;52.512;13.300;2024-01-30T12:20:14;8.90;99.90
28244;DHT22;15510;52.512;13.300;2024-01-30T12:22:42;8.90;99.90
28244;DHT22;15510;52.512;13.300;2024-01-30T12:25:09;9.00;99.90
28244;DHT22;15510;52.512;13.300;2024-01-30T12:27:36;9.10;99.90
28244;DHT22;15510;52.512;13.300;2024-01-30T12:30:09;9.10;99.90
28244;DHT22;15510;52.512;13.300;2024-01-30T12:32:40;9.20;99.90
28244;DHT22;15510;52.512;13.300;2024-01-30T12:35:11;9.30;99.90
28244;DHT22;15510;52.512;13.300;2024-01-30T12:37:37;9.30;99.90
28244;DHT22;15510;52.512;13.300;2024-01-30T12:40:03;9.30;99.90
28244;DHT22;15510;52.512;13.300;2024-01-30T12:42:29;9.30;99.90
28244;DHT22;15510;52.512;13.300;2024-01-30T12:44:57;9.30;99.90
28244;DHT22;15510;52.512;13.300;2024-01-30T12:47:24;9.30;99.90
28244;DHT22;15510;52.512;13.300;2024-01-30T12:49:50;9.30;99.90
28244;DHT22;15510;52.512;13.300;2024-01-30T12:52:19;9.30;99.90
28244;DHT22;15510;52.512;13.300;2024-01-30T12:54:45;9.30;99.90
28244;DHT22;15510;52.512;13.300;2024-01-30T12:57:11;9.30;99.90
28244;DHT22;15510;52.512;13.300;2024-01-30T12:59:37;9.30;99.90
28244;DHT22;15510;52.512;13.300;2024-01-30T13:02:03;9.30;99.90
28244;DHT22;15510;52.512;13.300;2024-01-30T13:04:29;9.20;99.90
28244;DHT22;15510;52.512;13.300;2024-01-30T13:06:55;9.10;99.90
28244;DHT22;15510;52.512;13.300;2024-01-30T13:09:21;9.00;99.90
28244;DHT22;15510;52.512;13.300;2024-01-30T13:11:47;9.10;99.90
28244;DHT22;15510;52.512;13.300;2024-01-30T13:14:12;9.10;99.90
28244;DHT22;15510;52.512;13.300;2024-01-30T13:16:38;9.00;99.90
28244;DHT22;15510;52.512;13.300;2024-01-30T13:19:04;9.00;99.90
28244;DHT22;15510;52.512;13.300;2024-01-30T13:21:30;9.10;99.90
28244;DHT22;15510;52.512;13.300;2024-01-30T13:23:55;9.10;99.90
28244;DHT22;15510;52.512;13.300;2024-01-30T13:26:21;9.10;99.90
28244;DHT22;15510;52.512;13.300;2024-01-30T13:28:47;9.10;99.90
28244;DHT22;15510;52.512;13.300;2024-01-30T13:31:14;9.10;99.90
28244;DHT22;15510;52.512;13.300;2024-01-30T13:33:41;9.10;99.90
28244;DHT22;15510;52.512;13.300;2024-01-30T13:36:08;9.20;99.90
28244;DHT22;15510;52.512;13.300;2024-01-30T13:38:34;9.20;99.90
28244;DHT22;15510;52.512;13.300;2024-01-30T13:41:00;9.20;99.90
28244;DHT22;15510;52.512;13.300;2024-01-30T13:43:26;9.20;99.90
28244;DHT22;15510;52.512;13.300;2024-01-30T13:45:52;9.20;99.90
28244;DHT22;15510;52.512;13.300;2024-01-30T13:48:18;9.20;99.90
28244;DHT22;15510;52.512;13.300;2024-01-30T13:50:43;9.20;99.90
28244;DHT22;15510;52.512;13.300;2024-01-30T13:55:53;9.30;99.90
28244;DHT22;15510;52.512;13.300;2024-01-30T13:58:38;9.30;99.90
28244;DHT22;15510;52.512;13.300;2024-01-30T14:04:28;9.20;99.90
28244;DHT22;15510;52.512;13.300;2024-01-30T14:10:35;9.30;99.90
28244;DHT22;15510;52.512;13.300;2024-01-30T14:13:42;9.30;99.90
28244;DHT22;15510;52.512;13.300;2024-01-30T14:16:28;9.30;99.90
28244;DHT22;15510;52.512;13.300;2024-01-30T14:19:17;9.20;99.90
28244;DHT22;15510;52.512;13.300;2024-01-30T14:28:39;9.30;99.90
28244;DHT22;15510;52.512;13.300;2024-01-30T14:31:31;9.30;99.90
28244;DHT22;15510;52.512;13.300;2024-01-30T14:34:29;9.20;99.90
28244;DHT22;15510;52.512;13.300;2024-01-30T14:40:56;9.20;99.90
28244;DHT22;15510;52.512;13.300;2024-01-30T14:43:45;9.20;99.90
28244;DHT22;15510;52.512;13.300;2024-01-30T14:46:33;9.10;99.90
28244;DHT22;15510;52.512;13.300;2024-01-30T14:49:14;9.10;99.90
28244;DHT22;15510;52.512;13.300;2024-01-30T14:51:58;9.10;99.90
28244;DHT22;15510;52.512;13.300;2024-01-30T14:55:08;9.00;99.90
28244;DHT22;15510;52.512;13.300;2024-01-30T15:01:30;9.00;99.90
28244;DHT22;15510;52.512;13.300;2024-01-30T15:15:37;8.80;99.90
28244;DHT22;15510;52.512;13.300;2024-01-30T15:18:23;8.70;99.90
28244;DHT22;15510;52.512;13.300;2024-01-30T15:21:08;8.70;99.90
28244;DHT22;15510;52.512;13.300;2024-01-30T15:27:31;8.70;99.90
28244;DHT22;15510;52.512;13.300;2024-01-30T15:30:22;8.70;99.90
28244;DHT22;15510;52.512;13.300;2024-01-30T15:33:26;8.60;99.90
28244;DHT22;15510;52.512;13.300;2024-01-30T15:40:04;8.60;99.90
28244;DHT22;15510;52.512;13.300;2024-01-30T15:45:51;8.50;99.90
28244;DHT22;15510;52.512;13.300;2024-01-30T15:51:49;8.50;99.90
28244;DHT22;15510;52.512;13.300;2024-01-30T15:54:25;8.50;99.90
28244;DHT22;15510;52.512;13.300;2024-01-30T15:57:12;8.40;99.90
28244;DHT22;15510;52.512;13.300;2024-01-30T15:59:47;8.40;99.90
28244;DHT22;15510;52.512;13.300;2024-01-30T16:02:43;8.40;99.90
28244;DHT22;15510;52.512;13.300;2024-01-30T16:05:37;8.40;99.90
28244;DHT22;15510;52.512;13.300;2024-01-30T16:08:26;8.30;99.90
28244;DHT22;15510;52.512;13.300;2024-01-30T16:11:27;8.30;99.90
28244;DHT22;15510;52.512;13.300;2024-01-30T16:14:05;8.30;99.90
28244;DHT22;15510;52.512;13.300;2024-01-30T16:20:43;8.30;99.90
28244;DHT22;15510;52.512;13.300;2024-01-30T16:23:38;8.20;99.90
28244;DHT22;15510;52.512;13.300;2024-01-30T16:26:07;8.20;99.90
28244;DHT22;15510;52.512;13.300;2024-01-30T16:28:33;8.20;99.90
28244;DHT22;15510;52.512;13.300;2024-01-30T16:31:03;8.20;99.90
28244;DHT22;15510;52.512;13.300;2024-01-30T16:33:30;8.20;99.90
28244;DHT22;15510;52.512;13.300;2024-01-30T16:36:08;8.20;99.90
28244;DHT22;15510;52.512;13.300;2024-01-30T16:38:50;8.20;99.90
28244;DHT22;15510;52.512;13.300;2024-01-30T16:42:15;8.20;99.90
28244;DHT22;15510;52.512;13.300;2024-01-30T16:44:55;8.20;99.90
28244;DHT22;15510;52.512;13.300;2024-01-30T16:47:29;8.20;99.90
28244;DHT22;15510;52.512;13.300;2024-01-30T16:49:55;8.20;99.90
28244;DHT22;15510;52.512;13.300;2024-01-30T16:52:22;8.20;99.90
28244;DHT22;15510;52.512;13.300;2024-01-30T16:55:08;8.20;99.90
28244;DHT22;15510;52.512;13.300;2024-01-30T16:57:53;8.20;99.90
28244;DHT22;15510;52.512;13.300;2024-01-30T17:00:28;8.20;99.90